Flight Track Log - Related Links

Times and Time Zones

All times are in EST time to prevent confusion due to time zone crossing. See the CSN3950 flight status page for this flight to view local times or setup timezone preferences in your user account.

Time Position Orientation Groundspeed Altitude Reporting Facility
EST Latitude Longitude Course Direction KTS MPH feet Rate Location/Type
Thu 02:14:00 AM 29.6287 106.7446 135° Southeast  Level Estimated
Thu 02:15:00 AM 29.5379 106.8480 135° Southeast  Level Estimated
Thu 02:16:00 AM 29.4470 106.9512 135° Southeast  Level Estimated
Thu 02:17:00 AM 29.3561 107.0543 135° Southeast  Level Estimated
Thu 02:18:00 AM 29.2651 107.1571 135° Southeast  Level Estimated
Thu 02:19:00 AM 29.1740 107.2598 135° Southeast  Level Estimated
Thu 02:20:00 AM 29.0828 107.3623 135° Southeast  Level Estimated
Thu 02:21:00 AM 28.9915 107.4646 136° Southeast  Level Estimated
Thu 02:22:00 AM 28.9002 107.5667 136° Southeast  Level Estimated
Thu 02:23:00 AM 28.8088 107.6687 136° Southeast  Level Estimated
Thu 02:24:00 AM 28.7173 107.7704 136° Southeast  Level Estimated
Thu 02:25:00 AM 28.6258 107.8720 136° Southeast  Level Estimated
Thu 02:26:00 AM 28.5341 107.9734 136° Southeast  Level Estimated
Thu 02:27:00 AM 28.4424 108.0747 136° Southeast  Level Estimated
Thu 02:28:00 AM 28.3506 108.1757 136° Southeast  Level Estimated
Thu 02:29:00 AM 28.2588 108.2766 136° Southeast  Level Estimated
Thu 02:30:00 AM 28.1668 108.3773 136° Southeast  Level Estimated
Thu 02:31:00 AM 28.0748 108.4779 136° Southeast  Level Estimated
Thu 02:32:00 AM 27.9827 108.5782 136° Southeast  Level Estimated
Thu 02:33:00 AM 27.8906 108.6784 136° Southeast  Level Estimated
Thu 02:34:00 AM 27.7984 108.7784 136° Southeast  Level Estimated
Thu 02:35:00 AM 27.7061 108.8783 136° Southeast  Level Estimated
Thu 02:36:00 AM 27.6137 108.9780 136° Southeast  Level Estimated
Thu 02:37:00 AM 27.5212 109.0775 136° Southeast  Level Estimated
Thu 02:38:00 AM 27.4287 109.1768 136° Southeast  Level Estimated
Thu 02:39:00 AM 27.3362 109.2760 136° Southeast  Level Estimated
Thu 02:40:00 AM 27.2435 109.3751 136° Southeast  Level Estimated
Thu 02:41:00 AM 27.1508 109.4739 136° Southeast  Level Estimated
Thu 02:42:00 AM 27.0580 109.5726 137° Southeast  Level Estimated
Thu 02:43:00 AM 26.9651 109.6711 137° Southeast  Level Estimated
Thu 02:44:00 AM 26.8722 109.7695 137° Southeast  Level Estimated
Thu 02:45:00 AM 26.7792 109.8677 137° Southeast  Level Estimated
Thu 02:46:00 AM 26.6861 109.9657 137° Southeast  Level Estimated
Thu 02:47:00 AM 26.5930 110.0636 137° Southeast  Level Estimated
Thu 02:48:00 AM 26.4998 110.1613 137° Southeast  Level Estimated
Thu 02:49:00 AM 26.4066 110.2589 137° Southeast  Level Estimated
Thu 02:50:00 AM 26.3132 110.3563 137° Southeast  Level Estimated
Thu 02:51:00 AM 26.2198 110.4535 137° Southeast  Level Estimated
Thu 02:52:00 AM 26.1264 110.5506 137° Southeast  Level Estimated
Thu 02:53:00 AM 26.0329 110.6476 137° Southeast  Level Estimated
Thu 02:54:00 AM 25.9393 110.7443 137° Southeast  Level Estimated
Thu 02:55:00 AM 25.8456 110.8410 137° Southeast  Level Estimated
Thu 02:56:00 AM 25.7519 110.9375 137° Southeast  Level Estimated
Thu 02:57:00 AM 25.6581 111.0338 137° Southeast  Level Estimated
Thu 02:58:00 AM 25.5643 111.1300 137° Southeast  Level Estimated
Thu 02:59:00 AM 25.4704 111.2260 137° Southeast  Level Estimated
Thu 02:59:17 AM 23.9280 111.5300 137° Southeast 497 572 33,200  Level FlightAware ADS-B
Thu 02:59:58 AM 23.8570 111.6100 134° Southeast 499 574 32,100 -815 Descending FlightAware ADS-B
Thu 03:00:00 AM 25.3764 111.3218 137° Southeast  Level Estimated
Thu 03:00:38 AM 23.8030 111.6720 134° Southeast 499 574 32,100  Level FlightAware ADS-B
Thu 03:01:26 AM 23.7370 111.7460 134° Southeast 499 574 32,100 -2,778 Level FlightAware ADS-B
Thu 03:02:26 AM 23.6300 111.8650 134° Southeast 482 555 27,100 -3,125 Descending FlightAware ADS-B
Thu 03:03:02 AM 23.5830 111.9190 134° Southeast 482 555 27,100 -4,371 Level FlightAware ADS-B
Thu 03:03:36 AM 23.5180 111.9900 135° Southeast 450 518 22,000 -4,891 Descending FlightAware ADS-B
Thu 03:04:34 AM 23.4350 112.0830 134° Southeast 429 494 19,600 -2,262 Descending FlightAware ADS-B
Thu 03:05:38 AM 23.3480 112.1790 135° Southeast 417 480 17,400 -1,781 Descending FlightAware ADS-B
Thu 03:06:42 AM 23.2570 112.2800 134° Southeast 427 491 15,800 -1,395 Descending FlightAware ADS-B
Thu 03:07:04 AM 23.2260 112.3140 135° Southeast 422 486 15,400 -1,258 Descending FlightAware ADS-B
Thu 03:07:44 AM 23.1720 112.3740 134° Southeast 413 475 14,500 -1,268 Descending FlightAware ADS-B
Thu 03:08:15 AM 23.1320 112.4180 135° Southeast 408 470 13,900 -1,295 Descending FlightAware ADS-B
Thu 03:09:12 AM 23.0720 112.5130 124° Southeast 398 458 12,600 -1,367 Descending FlightAware ADS-B
Thu 03:09:34 AM 23.0690 112.5560 94° East 396 456 12,100 -1,154 Descending FlightAware ADS-B
Thu 03:10:04 AM 23.0700 112.6130 89° East 370 426 11,600 -505 Descending FlightAware ADS-B
Thu 03:11:09 AM 23.0710 112.7180 89° East 352 405 11,300 -682 Descending FlightAware ADS-B
Thu 03:11:32 AM 23.0690 112.7610 93° East 301 346 10,600 -986 Descending FlightAware ADS-B
Thu 03:12:22 AM 23.0680 112.8320 91° East 271 312 10,100 -643 Descending FlightAware ADS-B
Thu 03:12:56 AM 23.0680 112.8770 90° East 253 291 9,700 -618 Descending FlightAware ADS-B
Thu 03:13:30 AM 23.0680 112.9180 90° East 230 265 9,400 -636 Descending FlightAware ADS-B
Thu 03:14:02 AM 23.0590 112.9500 107° East 217 250 9,000 -844 Descending FlightAware ADS-B
Thu 03:14:34 AM 23.0440 112.9810 118° Southeast 208 239 8,500 -1,071 Descending FlightAware ADS-B
Thu 03:14:58 AM 23.0380 113.0050 105° East 209 241 8,000 -1,220 Descending FlightAware ADS-B
Thu 03:15:33 AM 23.0390 113.0420 88° East 205 236 7,300 -1,355 Descending FlightAware ADS-B
Thu 03:16:00 AM 23.0400 113.0710 88° East 206 237 6,600 -1,200 Descending FlightAware ADS-B
Thu 03:16:33 AM 23.0410 113.1030 88° East 198 228 6,100 -1,029 Descending FlightAware ADS-B
Thu 03:17:10 AM 23.0420 113.1400 88° East 189 217 5,400 -1,180 Descending FlightAware ADS-B
Thu 03:17:34 AM 23.0500 113.1610 68° East 189 217 4,900 -750 Descending FlightAware ADS-B
Thu 03:17:58 AM 23.0650 113.1770 44° Northeast 192 221 4,800 -727 Descending FlightAware ADS-B
Thu 03:18:40 AM 23.0900 113.2050 46° Northeast 187 215 4,100 -943 Descending FlightAware ADS-B
Thu 03:19:08 AM 23.1070 113.2250 47° Northeast 179 206 3,700 -1,031 Descending FlightAware ADS-B
Thu 03:19:44 AM 23.1330 113.2390 26° Northeast 173 199 3,000 -716 Descending FlightAware ADS-B
Thu 03:20:15 AM 23.1560 113.2460 16° North 176 203 2,900 -77 Descending FlightAware ADS-B
Thu 03:21:02 AM 23.1940 113.2560 14° North 178 205 2,900  Level FlightAware ADS-B
Thu 03:21:46 AM 23.2300 113.2660 14° North 179 206 2,900 -494 Level FlightAware ADS-B
Thu 03:22:27 AM 23.2620 113.2750 14° North 177 204 2,200 -1,015 Descending FlightAware ADS-B
Thu 03:22:51 AM 23.2800 113.2800 14° North 170 196 1,800 -842 Descending FlightAware ADS-B
Thu 03:23:24 AM 23.3040 113.2860 13° North 134 154 1,400 -435 Descending FlightAware ADS-B
Thu 03:24:00 AM 23.3230 113.2910 14° North 125 144 1,300 -167 Descending FlightAware ADS-B
Thu 03:26:00 AM 23.3924 113.2988 North  Level Estimated
Thu 03:27:00 AM 23.3924 113.2988 223° Southwest  Level Estimated
Thu 03:28:00 AM 23.3924 113.2988 223° Southwest  Level Estimated
Thu 03:29:00 AM 23.3924 113.2988 223° Southwest  Level Estimated
Thu 03:30:00 AM 23.3924 113.2988 223° Southwest  Level Estimated
Thu 03:31:00 AM 23.3924 113.2988 223° Southwest  Level Estimated
Thu 03:32:00 AM 23.3924 113.2988 223° Southwest  Level Estimated
Thu 03:33:00 AM 23.3924 113.2988 223° Southwest  Level Estimated
Thu 03:34:00 AM 23.3924 113.2988 223° Southwest  Level Estimated
Thu 03:35:00 AM 23.3924 113.2988 223° Southwest  Level Estimated
Thu 03:36:00 AM 23.3924 113.2988 223° Southwest  Level Estimated
Thu 03:37:00 AM 23.3924 113.2988 223° Southwest  Level Estimated

Login

Don't have an account? Register now (free) for customized features, flight alerts, and more!